LOT2141 EPKK-LIRF
Flight info
| Callsign | LOT2141 |
|---|---|
| Flight time | 1h 39m |
| Altitude | 36000 |
| Route | BABKO L856 KOPAT DCT MAREG DCT RADLY/N0458F350 DCT ROSKA DCT AGOMO DCT GAVRA DCT RITEB |
| Aircraft | B38M/M-SDE2E3FGHIRWXY/LB1 |
Departure
| Time | 2026-05-04 19:18 |
|---|---|
| Airport | Kraków John Paul II International Airport (EPKK) |
Arrival
| Time | 2026-05-04 20:58 |
|---|---|
| Airport | Rome–Fiumicino Leonardo da Vinci International Airport (LIRF) |
| Time | Latitude | Longitude | Altitude | Speed | Heading |
|---|---|---|---|---|---|
| 2026-05-04 18:32 | 50.07581 | 19.80159 | 802 ft | 0 kts | 347° |
| 2026-05-04 19:08 | 50.07585 | 19.80158 | 802 ft | 2 kts | 347° |
| 2026-05-04 19:08 | 50.07604 | 19.80151 | 802 ft | 4 kts | 347° |
| 2026-05-04 19:08 | 50.07624 | 19.80156 | 802 ft | 2 kts | 28° |
| 2026-05-04 19:09 | 50.07635 | 19.80177 | 802 ft | 6 kts | 58° |
| 2026-05-04 19:09 | 50.07651 | 19.80260 | 802 ft | 7 kts | 76° |
| 2026-05-04 19:09 | 50.07657 | 19.80304 | 802 ft | 0 kts | 78° |
| 2026-05-04 19:10 | 50.07658 | 19.80307 | 802 ft | 1 kts | 78° |
| 2026-05-04 19:10 | 50.07671 | 19.80372 | 802 ft | 8 kts | 52° |
| 2026-05-04 19:10 | 50.07697 | 19.80384 | 802 ft | 3 kts | 350° |
| 2026-05-04 19:11 | 50.07724 | 19.80376 | 802 ft | 5 kts | 348° |
| 2026-05-04 19:11 | 50.07741 | 19.80370 | 802 ft | 0 kts | 348° |
| 2026-05-04 19:12 | 50.07742 | 19.80370 | 802 ft | 1 kts | 348° |
| 2026-05-04 19:12 | 50.07757 | 19.80365 | 802 ft | 3 kts | 348° |
| 2026-05-04 19:13 | 50.07789 | 19.80355 | 802 ft | 3 kts | 348° |
| 2026-05-04 19:13 | 50.07793 | 19.80353 | 802 ft | 2 kts | 348° |
| 2026-05-04 19:13 | 50.07814 | 19.80346 | 803 ft | 4 kts | 347° |
| 2026-05-04 19:13 | 50.07836 | 19.80338 | 802 ft | 1 kts | 347° |
| 2026-05-04 19:14 | 50.07839 | 19.80337 | 802 ft | 0 kts | 347° |
| 2026-05-04 19:15 | 50.07841 | 19.80337 | 803 ft | 1 kts | 347° |
| 2026-05-04 19:15 | 50.07878 | 19.80324 | 802 ft | 11 kts | 347° |
| 2026-05-04 19:16 | 50.07981 | 19.80288 | 802 ft | 13 kts | 347° |
| 2026-05-04 19:16 | 50.08010 | 19.80262 | 802 ft | 3 kts | 301° |
| 2026-05-04 19:16 | 50.08013 | 19.80214 | 802 ft | 0 kts | 258° |
| 2026-05-04 19:16 | 50.08013 | 19.80212 | 802 ft | 0 kts | 258° |
| 2026-05-04 19:17 | 50.08013 | 19.80211 | 802 ft | 1 kts | 258° |
| 2026-05-04 19:17 | 50.07995 | 19.80077 | 803 ft | 41 kts | 258° |
| 2026-05-04 19:18 | 50.07874 | 19.79201 | 803 ft | 121 kts | 258° |
| 2026-05-04 19:18 | 50.07643 | 19.77595 | 908 ft | 173 kts | 257° |
| 2026-05-04 19:18 | 50.07400 | 19.75773 | 1847 ft | 170 kts | 258° |
| 2026-05-04 19:18 | 50.07180 | 19.74035 | 2955 ft | 158 kts | 256° |
| 2026-05-04 19:19 | 50.06934 | 19.72286 | 3601 ft | 174 kts | 255° |
| 2026-05-04 19:19 | 50.06653 | 19.70371 | 4173 ft | 189 kts | 256° |
| 2026-05-04 19:19 | 50.06362 | 19.68344 | 5006 ft | 190 kts | 255° |
| 2026-05-04 19:19 | 50.05978 | 19.66351 | 5788 ft | 200 kts | 240° |
| 2026-05-04 19:20 | 50.04959 | 19.64778 | 5961 ft | 221 kts | 208° |
| 2026-05-04 19:20 | 50.03417 | 19.64469 | 6567 ft | 228 kts | 178° |
| 2026-05-04 19:20 | 50.01797 | 19.64274 | 7090 ft | 242 kts | 201° |
| 2026-05-04 19:20 | 50.00183 | 19.63259 | 7580 ft | 260 kts | 201° |
| 2026-05-04 19:21 | 49.98547 | 19.62393 | 8094 ft | 275 kts | 199° |
| 2026-05-04 19:21 | 49.96754 | 19.61531 | 9052 ft | 274 kts | 198° |
| 2026-05-04 19:21 | 49.94912 | 19.60703 | 9934 ft | 278 kts | 197° |
| 2026-05-04 19:21 | 49.93011 | 19.59883 | 10526 ft | 291 kts | 197° |
| 2026-05-04 19:22 | 49.90988 | 19.59030 | 10848 ft | 311 kts | 197° |
| 2026-05-04 19:22 | 49.88834 | 19.58136 | 11196 ft | 330 kts | 196° |
| 2026-05-04 19:22 | 49.86567 | 19.57208 | 11655 ft | 343 kts | 196° |
| 2026-05-04 19:22 | 49.84233 | 19.56258 | 12310 ft | 348 kts | 196° |
| 2026-05-04 19:23 | 49.81883 | 19.55305 | 13079 ft | 351 kts | 196° |
| 2026-05-04 19:23 | 49.79499 | 19.54338 | 13827 ft | 355 kts | 196° |
| 2026-05-04 19:23 | 49.77105 | 19.53369 | 14518 ft | 358 kts | 196° |
| 2026-05-04 19:23 | 49.74678 | 19.52388 | 15126 ft | 363 kts | 196° |
| 2026-05-04 19:24 | 49.72217 | 19.51394 | 15775 ft | 366 kts | 196° |
| 2026-05-04 19:24 | 49.69767 | 19.50406 | 16375 ft | 371 kts | 196° |
| 2026-05-04 19:24 | 49.67255 | 19.49393 | 16981 ft | 374 kts | 196° |
| 2026-05-04 19:24 | 49.64723 | 19.48374 | 17552 ft | 379 kts | 196° |
| 2026-05-04 19:25 | 49.62212 | 19.47113 | 18086 ft | 380 kts | 208° |
| 2026-05-04 19:25 | 49.60055 | 19.44766 | 18593 ft | 382 kts | 225° |
| 2026-05-04 19:25 | 49.58179 | 19.41858 | 19061 ft | 385 kts | 226° |
| 2026-05-04 19:25 | 49.56294 | 19.38876 | 19536 ft | 388 kts | 227° |
| 2026-05-04 19:26 | 49.54411 | 19.35855 | 20010 ft | 391 kts | 227° |
| 2026-05-04 19:26 | 49.52528 | 19.32810 | 20479 ft | 395 kts | 227° |
| 2026-05-04 19:26 | 49.50656 | 19.29770 | 20953 ft | 398 kts | 227° |
| 2026-05-04 19:26 | 49.48723 | 19.26629 | 21448 ft | 401 kts | 227° |
| 2026-05-04 19:27 | 49.46804 | 19.23511 | 21924 ft | 404 kts | 228° |
| 2026-05-04 19:27 | 49.44882 | 19.20392 | 22394 ft | 408 kts | 227° |
| 2026-05-04 19:27 | 49.42918 | 19.17209 | 22877 ft | 411 kts | 227° |
| 2026-05-04 19:27 | 49.40944 | 19.14014 | 23331 ft | 416 kts | 227° |
| 2026-05-04 19:28 | 49.38941 | 19.10776 | 23776 ft | 419 kts | 227° |
| 2026-05-04 19:28 | 49.36911 | 19.07498 | 23984 ft | 426 kts | 227° |
| 2026-05-04 19:28 | 49.34839 | 19.04156 | 23993 ft | 436 kts | 227° |
| 2026-05-04 19:28 | 49.32747 | 19.00786 | 24008 ft | 449 kts | 227° |
| 2026-05-04 19:29 | 49.30538 | 18.97232 | 24082 ft | 460 kts | 227° |
| 2026-05-04 19:29 | 49.28325 | 18.93678 | 24542 ft | 460 kts | 227° |
| 2026-05-04 19:29 | 49.26137 | 18.90166 | 24930 ft | 463 kts | 227° |
| 2026-05-04 19:29 | 49.23908 | 18.86598 | 25381 ft | 464 kts | 227° |
| 2026-05-04 19:30 | 49.21673 | 18.83022 | 25904 ft | 464 kts | 227° |
| 2026-05-04 19:30 | 49.19441 | 18.79455 | 26404 ft | 464 kts | 227° |
| 2026-05-04 19:30 | 49.17202 | 18.75884 | 26911 ft | 464 kts | 227° |
| 2026-05-04 19:30 | 49.14963 | 18.72318 | 27418 ft | 464 kts | 227° |
| 2026-05-04 19:31 | 49.12725 | 18.68757 | 27938 ft | 464 kts | 227° |
| 2026-05-04 19:31 | 49.10565 | 18.65183 | 28416 ft | 463 kts | 233° |
| 2026-05-04 19:31 | 49.08587 | 18.61304 | 28914 ft | 462 kts | 233° |
| 2026-05-04 19:31 | 49.06588 | 18.57455 | 29404 ft | 462 kts | 233° |
| 2026-05-04 19:32 | 49.04583 | 18.53641 | 29913 ft | 462 kts | 233° |
| 2026-05-04 19:32 | 49.02556 | 18.49811 | 30360 ft | 462 kts | 232° |
| 2026-05-04 19:32 | 49.00538 | 18.46008 | 30796 ft | 461 kts | 233° |
| 2026-05-04 19:32 | 48.98515 | 18.42204 | 31262 ft | 460 kts | 233° |
| 2026-05-04 19:33 | 48.96532 | 18.38481 | 31687 ft | 459 kts | 233° |
| 2026-05-04 19:33 | 48.94493 | 18.34656 | 32120 ft | 458 kts | 233° |
| 2026-05-04 19:33 | 48.92508 | 18.30939 | 32549 ft | 458 kts | 233° |
| 2026-05-04 19:33 | 48.90495 | 18.27176 | 32956 ft | 457 kts | 233° |
| 2026-05-04 19:34 | 48.88493 | 18.23438 | 33396 ft | 456 kts | 233° |
| 2026-05-04 19:34 | 48.86490 | 18.19703 | 33845 ft | 455 kts | 233° |
| 2026-05-04 19:34 | 48.84487 | 18.15975 | 34212 ft | 454 kts | 233° |
| 2026-05-04 19:34 | 48.82495 | 18.12270 | 34562 ft | 453 kts | 233° |
| 2026-05-04 19:35 | 48.80498 | 18.08562 | 34913 ft | 452 kts | 233° |
| 2026-05-04 19:35 | 48.78514 | 18.04884 | 35252 ft | 451 kts | 233° |
| 2026-05-04 19:35 | 48.76561 | 18.01268 | 35611 ft | 449 kts | 233° |
| 2026-05-04 19:35 | 48.74575 | 17.97594 | 35936 ft | 449 kts | 233° |
| 2026-05-04 19:36 | 48.72596 | 17.93941 | 36021 ft | 449 kts | 233° |
| 2026-05-04 19:36 | 48.68639 | 17.86648 | 35996 ft | 446 kts | 233° |
| 2026-05-04 19:37 | 48.64678 | 17.79369 | 35992 ft | 446 kts | 232° |
| 2026-05-04 19:37 | 48.60757 | 17.72183 | 35993 ft | 446 kts | 232° |
| 2026-05-04 19:38 | 48.56806 | 17.64961 | 35996 ft | 446 kts | 232° |
| 2026-05-04 19:38 | 48.52850 | 17.57750 | 35984 ft | 446 kts | 232° |
| 2026-05-04 19:39 | 48.48885 | 17.50541 | 35989 ft | 445 kts | 232° |
| 2026-05-04 19:39 | 48.44927 | 17.43365 | 35976 ft | 445 kts | 232° |
| 2026-05-04 19:40 | 48.40956 | 17.36185 | 35971 ft | 445 kts | 232° |
| 2026-05-04 19:40 | 48.37019 | 17.29084 | 35970 ft | 445 kts | 232° |
| 2026-05-04 19:41 | 48.33044 | 17.21935 | 35966 ft | 445 kts | 232° |
| 2026-05-04 19:41 | 48.29077 | 17.14817 | 35962 ft | 444 kts | 232° |
| 2026-05-04 19:42 | 48.25102 | 17.07704 | 35968 ft | 444 kts | 232° |
| 2026-05-04 19:42 | 48.21137 | 17.00623 | 35961 ft | 443 kts | 232° |
| 2026-05-04 19:43 | 48.16713 | 16.94178 | 35965 ft | 445 kts | 220° |
| 2026-05-04 19:43 | 48.11880 | 16.88438 | 35946 ft | 446 kts | 220° |
| 2026-05-04 19:44 | 48.07007 | 16.82688 | 35938 ft | 446 kts | 220° |
| 2026-05-04 19:44 | 48.02125 | 16.76947 | 35941 ft | 446 kts | 220° |
| 2026-05-04 19:45 | 47.97249 | 16.71227 | 35938 ft | 446 kts | 220° |
| 2026-05-04 19:45 | 47.93193 | 16.66481 | 35943 ft | 446 kts | 220° |
| 2026-05-04 19:46 | 47.87506 | 16.59842 | 35937 ft | 445 kts | 220° |
| 2026-05-04 19:46 | 47.82624 | 16.54157 | 35944 ft | 446 kts | 220° |
| 2026-05-04 19:47 | 47.78565 | 16.49441 | 35943 ft | 445 kts | 220° |
| 2026-05-04 19:47 | 47.73673 | 16.43771 | 35950 ft | 445 kts | 220° |
| 2026-05-04 19:48 | 47.68782 | 16.38115 | 35955 ft | 445 kts | 219° |
| 2026-05-04 19:48 | 47.63891 | 16.32474 | 35962 ft | 445 kts | 219° |
| 2026-05-04 19:49 | 47.58998 | 16.26844 | 35957 ft | 445 kts | 219° |
| 2026-05-04 19:49 | 47.54109 | 16.21231 | 35959 ft | 445 kts | 219° |
| 2026-05-04 19:50 | 47.49235 | 16.15650 | 35964 ft | 445 kts | 219° |
| 2026-05-04 19:50 | 47.44335 | 16.10054 | 35966 ft | 445 kts | 219° |
| 2026-05-04 19:51 | 47.39431 | 16.04465 | 35974 ft | 445 kts | 219° |
| 2026-05-04 19:51 | 47.34521 | 15.98884 | 35971 ft | 446 kts | 219° |
| 2026-05-04 19:52 | 47.29604 | 15.93306 | 35971 ft | 446 kts | 219° |
| 2026-05-04 19:52 | 47.24705 | 15.87764 | 35971 ft | 446 kts | 219° |
| 2026-05-04 19:53 | 47.19778 | 15.82202 | 35971 ft | 446 kts | 219° |
| 2026-05-04 19:53 | 47.14834 | 15.76637 | 35975 ft | 446 kts | 219° |
| 2026-05-04 19:54 | 47.09930 | 15.71128 | 35987 ft | 446 kts | 218° |
| 2026-05-04 19:54 | 47.04989 | 15.65591 | 35989 ft | 446 kts | 218° |
| 2026-05-04 19:55 | 47.00047 | 15.60066 | 35992 ft | 446 kts | 218° |
| 2026-05-04 19:55 | 46.95105 | 15.54556 | 35990 ft | 446 kts | 218° |
| 2026-05-04 19:56 | 46.90193 | 15.49091 | 35992 ft | 446 kts | 218° |
| 2026-05-04 19:56 | 46.85253 | 15.43607 | 35987 ft | 445 kts | 218° |
| 2026-05-04 19:57 | 46.80320 | 15.38145 | 36003 ft | 444 kts | 218° |
| 2026-05-04 19:57 | 46.75397 | 15.32703 | 35983 ft | 444 kts | 218° |
| 2026-05-04 19:58 | 46.70461 | 15.27260 | 35987 ft | 444 kts | 218° |
| 2026-05-04 19:58 | 46.65571 | 15.21853 | 35999 ft | 443 kts | 221° |
| 2026-05-04 19:58 | 46.63457 | 15.18552 | 36020 ft | 439 kts | 233° |
| 2026-05-04 19:59 | 46.61553 | 15.15063 | 36002 ft | 442 kts | 232° |
| 2026-05-04 19:59 | 46.57720 | 15.08133 | 36018 ft | 441 kts | 232° |
| 2026-05-04 20:00 | 46.53901 | 15.01165 | 36019 ft | 441 kts | 232° |
| 2026-05-04 20:00 | 46.50072 | 14.94186 | 36026 ft | 440 kts | 232° |
| 2026-05-04 20:01 | 46.46285 | 14.87302 | 36046 ft | 440 kts | 232° |
| 2026-05-04 20:01 | 46.42438 | 14.80325 | 36056 ft | 440 kts | 232° |
| 2026-05-04 20:02 | 46.38609 | 14.73400 | 36069 ft | 439 kts | 232° |
| 2026-05-04 20:02 | 46.34810 | 14.66543 | 36065 ft | 439 kts | 232° |
| 2026-05-04 20:03 | 46.30991 | 14.59670 | 36066 ft | 439 kts | 232° |
| 2026-05-04 20:03 | 46.27161 | 14.52793 | 36082 ft | 438 kts | 232° |
| 2026-05-04 20:04 | 46.23326 | 14.45922 | 36085 ft | 438 kts | 232° |
| 2026-05-04 20:04 | 46.19489 | 14.39067 | 36078 ft | 439 kts | 232° |
| 2026-05-04 20:05 | 46.15677 | 14.32272 | 36076 ft | 439 kts | 232° |
| 2026-05-04 20:05 | 46.11833 | 14.25438 | 36085 ft | 439 kts | 232° |
| 2026-05-04 20:06 | 46.07983 | 14.18610 | 36086 ft | 438 kts | 232° |
| 2026-05-04 20:06 | 46.04135 | 14.11802 | 36095 ft | 438 kts | 232° |
| 2026-05-04 20:07 | 46.00280 | 14.04997 | 36083 ft | 437 kts | 232° |
| 2026-05-04 20:07 | 45.96459 | 13.98269 | 36093 ft | 437 kts | 232° |
| 2026-05-04 20:08 | 45.92618 | 13.91523 | 36088 ft | 437 kts | 232° |
| 2026-05-04 20:08 | 45.88757 | 13.84758 | 36078 ft | 436 kts | 232° |
| 2026-05-04 20:09 | 45.84910 | 13.78034 | 36078 ft | 436 kts | 232° |
| 2026-05-04 20:09 | 45.81053 | 13.71308 | 36071 ft | 436 kts | 232° |
| 2026-05-04 20:10 | 45.77210 | 13.64621 | 36071 ft | 436 kts | 232° |
| 2026-05-04 20:10 | 45.73345 | 13.57914 | 36072 ft | 435 kts | 232° |
| 2026-05-04 20:11 | 45.69487 | 13.51236 | 36072 ft | 435 kts | 232° |
| 2026-05-04 20:11 | 45.65644 | 13.44599 | 36069 ft | 435 kts | 232° |
| 2026-05-04 20:12 | 45.61785 | 13.37949 | 36068 ft | 435 kts | 232° |
| 2026-05-04 20:12 | 45.57918 | 13.31302 | 36074 ft | 434 kts | 232° |
| 2026-05-04 20:13 | 45.54056 | 13.24679 | 36070 ft | 434 kts | 232° |
| 2026-05-04 20:13 | 45.50182 | 13.18052 | 36062 ft | 434 kts | 232° |
| 2026-05-04 20:14 | 45.46314 | 13.11449 | 35912 ft | 434 kts | 232° |
| 2026-05-04 20:14 | 45.44400 | 13.08185 | 35672 ft | 433 kts | 232° |
| 2026-05-04 20:14 | 45.42471 | 13.04902 | 35437 ft | 433 kts | 232° |
| 2026-05-04 20:14 | 45.40532 | 13.01604 | 35204 ft | 433 kts | 232° |
| 2026-05-04 20:15 | 45.38596 | 12.98313 | 35044 ft | 433 kts | 232° |
| 2026-05-04 20:15 | 45.34717 | 12.91734 | 35060 ft | 435 kts | 232° |
| 2026-05-04 20:15 | 45.32581 | 12.88685 | 35035 ft | 437 kts | 218° |
| 2026-05-04 20:16 | 45.29908 | 12.86620 | 35054 ft | 442 kts | 202° |
| 2026-05-04 20:16 | 45.23868 | 12.84790 | 35053 ft | 448 kts | 193° |
| 2026-05-04 20:17 | 45.17704 | 12.83429 | 35060 ft | 449 kts | 192° |
| 2026-05-04 20:17 | 45.11513 | 12.82162 | 35057 ft | 449 kts | 191° |
| 2026-05-04 20:18 | 45.05312 | 12.80918 | 35050 ft | 449 kts | 191° |
| 2026-05-04 20:18 | 45.02254 | 12.80069 | 35051 ft | 444 kts | 202° |
| 2026-05-04 20:18 | 44.99487 | 12.78215 | 35070 ft | 439 kts | 212° |
| 2026-05-04 20:19 | 44.94115 | 12.74039 | 35060 ft | 440 kts | 212° |
| 2026-05-04 20:19 | 44.88817 | 12.69822 | 35059 ft | 440 kts | 213° |
| 2026-05-04 20:20 | 44.83496 | 12.65557 | 35058 ft | 439 kts | 213° |
| 2026-05-04 20:20 | 44.78174 | 12.61298 | 35056 ft | 439 kts | 213° |
| 2026-05-04 20:21 | 44.72866 | 12.57058 | 35057 ft | 438 kts | 213° |
| 2026-05-04 20:21 | 44.64951 | 12.50753 | 35061 ft | 438 kts | 213° |
| 2026-05-04 20:22 | 44.59651 | 12.46542 | 35062 ft | 437 kts | 213° |
| 2026-05-04 20:22 | 44.54345 | 12.42334 | 35061 ft | 437 kts | 214° |
| 2026-05-04 20:23 | 44.49044 | 12.38141 | 35067 ft | 436 kts | 214° |
| 2026-05-04 20:23 | 44.43793 | 12.33995 | 35070 ft | 436 kts | 214° |
| 2026-05-04 20:24 | 44.38504 | 12.29828 | 35074 ft | 435 kts | 214° |
| 2026-05-04 20:24 | 44.33230 | 12.25682 | 35076 ft | 435 kts | 214° |
| 2026-05-04 20:25 | 44.27951 | 12.21540 | 35071 ft | 434 kts | 214° |
| 2026-05-04 20:25 | 44.22681 | 12.17414 | 35074 ft | 434 kts | 214° |
| 2026-05-04 20:26 | 44.17442 | 12.13321 | 35071 ft | 434 kts | 214° |
| 2026-05-04 20:26 | 44.12173 | 12.09212 | 35074 ft | 434 kts | 214° |
| 2026-05-04 20:27 | 44.06895 | 12.05106 | 35077 ft | 433 kts | 214° |
| 2026-05-04 20:27 | 44.01629 | 12.01016 | 35080 ft | 433 kts | 214° |
| 2026-05-04 20:28 | 43.96370 | 11.96941 | 35097 ft | 433 kts | 214° |
| 2026-05-04 20:28 | 43.91143 | 11.92898 | 35103 ft | 433 kts | 214° |
| 2026-05-04 20:29 | 43.85896 | 11.88847 | 35113 ft | 432 kts | 214° |
| 2026-05-04 20:29 | 43.80611 | 11.84862 | 35118 ft | 435 kts | 208° |
| 2026-05-04 20:30 | 43.77671 | 11.83720 | 35117 ft | 445 kts | 193° |
| 2026-05-04 20:30 | 43.74537 | 11.83667 | 35132 ft | 456 kts | 181° |
| 2026-05-04 20:30 | 43.68239 | 11.85120 | 35124 ft | 464 kts | 175° |
| 2026-05-04 20:31 | 43.61951 | 11.87401 | 35124 ft | 467 kts | 172° |
| 2026-05-04 20:31 | 43.55708 | 11.89460 | 35129 ft | 447 kts | 173° |
| 2026-05-04 20:32 | 43.49749 | 11.91357 | 35125 ft | 435 kts | 174° |
| 2026-05-04 20:32 | 43.43855 | 11.93224 | 35129 ft | 435 kts | 174° |
| 2026-05-04 20:33 | 43.37956 | 11.95090 | 35126 ft | 435 kts | 174° |
| 2026-05-04 20:33 | 43.32059 | 11.96952 | 35131 ft | 435 kts | 174° |
| 2026-05-04 20:34 | 43.26199 | 11.98798 | 35122 ft | 437 kts | 174° |
| 2026-05-04 20:34 | 43.20166 | 12.00694 | 35120 ft | 451 kts | 174° |
| 2026-05-04 20:35 | 43.13961 | 12.02641 | 35119 ft | 463 kts | 173° |
| 2026-05-04 20:35 | 43.07618 | 12.04627 | 35123 ft | 469 kts | 173° |
| 2026-05-04 20:36 | 43.05501 | 12.05289 | 34866 ft | 470 kts | 173° |
| 2026-05-04 20:36 | 43.02322 | 12.06281 | 34218 ft | 467 kts | 174° |
| 2026-05-04 20:36 | 42.99158 | 12.07269 | 33482 ft | 466 kts | 173° |
| 2026-05-04 20:36 | 42.96002 | 12.08253 | 32785 ft | 464 kts | 173° |
| 2026-05-04 20:37 | 42.92855 | 12.09234 | 32091 ft | 463 kts | 173° |
| 2026-05-04 20:37 | 42.89723 | 12.10208 | 31434 ft | 461 kts | 173° |
| 2026-05-04 20:37 | 42.86604 | 12.11177 | 30796 ft | 459 kts | 173° |
| 2026-05-04 20:37 | 42.83485 | 12.12146 | 30182 ft | 457 kts | 172° |
| 2026-05-04 20:38 | 42.80454 | 12.13085 | 29864 ft | 446 kts | 172° |
| 2026-05-04 20:38 | 42.77465 | 12.14011 | 29624 ft | 434 kts | 172° |
| 2026-05-04 20:38 | 42.74567 | 12.14908 | 29391 ft | 423 kts | 172° |
| 2026-05-04 20:38 | 42.71712 | 12.15791 | 29170 ft | 413 kts | 172° |
| 2026-05-04 20:39 | 42.68984 | 12.17020 | 28629 ft | 420 kts | 157° |
| 2026-05-04 20:39 | 42.66466 | 12.19086 | 28045 ft | 421 kts | 153° |
| 2026-05-04 20:39 | 42.63953 | 12.21118 | 27459 ft | 420 kts | 153° |
| 2026-05-04 20:39 | 42.61460 | 12.23114 | 26894 ft | 420 kts | 153° |
| 2026-05-04 20:40 | 42.58930 | 12.25133 | 26111 ft | 424 kts | 153° |
| 2026-05-04 20:40 | 42.56345 | 12.27190 | 25096 ft | 435 kts | 152° |
| 2026-05-04 20:40 | 42.53708 | 12.29288 | 24025 ft | 446 kts | 152° |
| 2026-05-04 20:40 | 42.51008 | 12.31433 | 22963 ft | 452 kts | 152° |
| 2026-05-04 20:41 | 42.48302 | 12.33584 | 22254 ft | 449 kts | 152° |
| 2026-05-04 20:41 | 42.45621 | 12.35719 | 21586 ft | 444 kts | 152° |
| 2026-05-04 20:41 | 42.42979 | 12.37820 | 20970 ft | 440 kts | 152° |
| 2026-05-04 20:41 | 42.40348 | 12.39910 | 20389 ft | 435 kts | 152° |
| 2026-05-04 20:42 | 42.37748 | 12.41974 | 19773 ft | 431 kts | 152° |
| 2026-05-04 20:42 | 42.35087 | 12.43740 | 19177 ft | 423 kts | 165° |
| 2026-05-04 20:42 | 42.32273 | 12.44887 | 18588 ft | 419 kts | 166° |
| 2026-05-04 20:42 | 42.29499 | 12.46042 | 17944 ft | 415 kts | 167° |
| 2026-05-04 20:43 | 42.26674 | 12.46495 | 17334 ft | 405 kts | 185° |
| 2026-05-04 20:43 | 42.23966 | 12.45695 | 16719 ft | 396 kts | 206° |
| 2026-05-04 20:43 | 42.21732 | 12.43718 | 16105 ft | 388 kts | 226° |
| 2026-05-04 20:43 | 42.20180 | 12.40763 | 15507 ft | 383 kts | 246° |
| 2026-05-04 20:44 | 42.19508 | 12.37335 | 14938 ft | 380 kts | 266° |
| 2026-05-04 20:44 | 42.19894 | 12.33820 | 14375 ft | 379 kts | 291° |
| 2026-05-04 20:44 | 42.21376 | 12.30905 | 13809 ft | 381 kts | 316° |
| 2026-05-04 20:44 | 42.23649 | 12.29161 | 13194 ft | 385 kts | 342° |
| 2026-05-04 20:45 | 42.26309 | 12.28828 | 12559 ft | 387 kts | 2° |
| 2026-05-04 20:45 | 42.28999 | 12.28814 | 11932 ft | 384 kts | 351° |
| 2026-05-04 20:45 | 42.31611 | 12.28160 | 11354 ft | 382 kts | 346° |
| 2026-05-04 20:45 | 42.34188 | 12.27330 | 10892 ft | 378 kts | 344° |
| 2026-05-04 20:46 | 42.36675 | 12.26415 | 10786 ft | 362 kts | 341° |
| 2026-05-04 20:46 | 42.38881 | 12.24964 | 10719 ft | 343 kts | 320° |
| 2026-05-04 20:46 | 42.40359 | 12.22595 | 10689 ft | 321 kts | 294° |
| 2026-05-04 20:46 | 42.40910 | 12.19796 | 10708 ft | 298 kts | 269° |
| 2026-05-04 20:47 | 42.40548 | 12.17209 | 10648 ft | 276 kts | 244° |
| 2026-05-04 20:47 | 42.39433 | 12.15149 | 10177 ft | 272 kts | 218° |
| 2026-05-04 20:47 | 42.37772 | 12.14004 | 9677 ft | 269 kts | 195° |
| 2026-05-04 20:47 | 42.35921 | 12.13570 | 9182 ft | 269 kts | 186° |
| 2026-05-04 20:48 | 42.34071 | 12.13331 | 8719 ft | 266 kts | 185° |
| 2026-05-04 20:48 | 42.32226 | 12.13342 | 8257 ft | 265 kts | 176° |
| 2026-05-04 20:48 | 42.30398 | 12.13626 | 7824 ft | 263 kts | 173° |
| 2026-05-04 20:48 | 42.28597 | 12.14045 | 7413 ft | 261 kts | 170° |
| 2026-05-04 20:49 | 42.26831 | 12.14567 | 7005 ft | 259 kts | 168° |
| 2026-05-04 20:49 | 42.25087 | 12.15164 | 6534 ft | 258 kts | 166° |
| 2026-05-04 20:49 | 42.23372 | 12.15805 | 6134 ft | 255 kts | 165° |
| 2026-05-04 20:49 | 42.21671 | 12.16475 | 5687 ft | 253 kts | 165° |
| 2026-05-04 20:50 | 42.20001 | 12.17152 | 5402 ft | 244 kts | 164° |
| 2026-05-04 20:50 | 42.18456 | 12.17787 | 5379 ft | 227 kts | 164° |
| 2026-05-04 20:50 | 42.16995 | 12.18394 | 5319 ft | 212 kts | 164° |
| 2026-05-04 20:50 | 42.15640 | 12.18959 | 5304 ft | 195 kts | 165° |
| 2026-05-04 20:51 | 42.14335 | 12.19181 | 5231 ft | 189 kts | 181° |
| 2026-05-04 20:51 | 42.12974 | 12.19171 | 5131 ft | 201 kts | 180° |
| 2026-05-04 20:51 | 42.11555 | 12.19160 | 4963 ft | 206 kts | 180° |
| 2026-05-04 20:51 | 42.10113 | 12.19144 | 4745 ft | 208 kts | 180° |
| 2026-05-04 20:52 | 42.08666 | 12.19127 | 4485 ft | 207 kts | 180° |
| 2026-05-04 20:52 | 42.07224 | 12.19108 | 4227 ft | 207 kts | 180° |
| 2026-05-04 20:52 | 42.05787 | 12.19088 | 4038 ft | 203 kts | 180° |
| 2026-05-04 20:52 | 42.04377 | 12.19068 | 4000 ft | 204 kts | 180° |
| 2026-05-04 20:53 | 42.02955 | 12.19047 | 3822 ft | 205 kts | 181° |
| 2026-05-04 20:53 | 42.01544 | 12.19149 | 3596 ft | 200 kts | 172° |
| 2026-05-04 20:53 | 42.00218 | 12.19562 | 3340 ft | 196 kts | 165° |
| 2026-05-04 20:53 | 41.98912 | 12.20110 | 3071 ft | 190 kts | 163° |
| 2026-05-04 20:54 | 41.97675 | 12.20636 | 2821 ft | 182 kts | 165° |
| 2026-05-04 20:54 | 41.96503 | 12.21130 | 2575 ft | 175 kts | 163° |
| 2026-05-04 20:54 | 41.95354 | 12.21615 | 2338 ft | 171 kts | 163° |
| 2026-05-04 20:54 | 41.94251 | 12.22081 | 2117 ft | 159 kts | 162° |
| 2026-05-04 20:55 | 41.93218 | 12.22530 | 1891 ft | 154 kts | 163° |
| 2026-05-04 20:55 | 41.92209 | 12.22946 | 1730 ft | 149 kts | 163° |
| 2026-05-04 20:55 | 41.91240 | 12.23356 | 1514 ft | 143 kts | 163° |
| 2026-05-04 20:55 | 41.90304 | 12.23749 | 1310 ft | 139 kts | 162° |
| 2026-05-04 20:56 | 41.89383 | 12.24143 | 1131 ft | 138 kts | 162° |
| 2026-05-04 20:56 | 41.88449 | 12.24547 | 936 ft | 142 kts | 162° |
| 2026-05-04 20:56 | 41.87504 | 12.24945 | 710 ft | 144 kts | 163° |
| 2026-05-04 20:56 | 41.86533 | 12.25336 | 527 ft | 143 kts | 163° |
| 2026-05-04 20:57 | 41.85604 | 12.25724 | 264 ft | 139 kts | 161° |
| 2026-05-04 20:57 | 41.84685 | 12.26111 | 96 ft | 142 kts | 161° |
| 2026-05-04 20:57 | 41.83780 | 12.26494 | 26 ft | 121 kts | 162° |
| 2026-05-04 20:57 | 41.83162 | 12.26752 | 24 ft | 69 kts | 162° |
| 2026-05-04 20:58 | 41.82871 | 12.26868 | 27 ft | 20 kts | 171° |
| 2026-05-04 20:58 | 41.82729 | 12.26871 | 26 ft | 21 kts | 187° |
| 2026-05-04 20:58 | 41.82572 | 12.26830 | 21 ft | 25 kts | 192° |
| 2026-05-04 20:58 | 41.82424 | 12.26788 | 19 ft | 20 kts | 192° |
| 2026-05-04 20:59 | 41.82285 | 12.26795 | 20 ft | 21 kts | 164° |
| 2026-05-04 20:59 | 41.82133 | 12.26859 | 16 ft | 24 kts | 162° |
| 2026-05-04 20:59 | 41.81979 | 12.26923 | 18 ft | 21 kts | 162° |
| 2026-05-04 20:59 | 41.81828 | 12.26987 | 18 ft | 24 kts | 162° |
| 2026-05-04 21:00 | 41.81669 | 12.27053 | 22 ft | 24 kts | 163° |
| 2026-05-04 21:00 | 41.81540 | 12.27106 | 24 ft | 17 kts | 163° |
| 2026-05-04 21:00 | 41.81418 | 12.27157 | 25 ft | 20 kts | 162° |
| 2026-05-04 21:00 | 41.81269 | 12.27221 | 19 ft | 25 kts | 162° |
| 2026-05-04 21:01 | 41.81133 | 12.27279 | 18 ft | 20 kts | 163° |
| 2026-05-04 21:01 | 41.81001 | 12.27332 | 16 ft | 19 kts | 163° |
| 2026-05-04 21:01 | 41.80888 | 12.27347 | 17 ft | 18 kts | 188° |
| 2026-05-04 21:01 | 41.80760 | 12.27319 | 16 ft | 18 kts | 190° |
| 2026-05-04 21:02 | 41.80672 | 12.27256 | 17 ft | 12 kts | 229° |
| 2026-05-04 21:02 | 41.80629 | 12.27146 | 18 ft | 15 kts | 249° |
| 2026-05-04 21:02 | 41.80596 | 12.27017 | 18 ft | 15 kts | 251° |
| 2026-05-04 21:02 | 41.80558 | 12.26872 | 19 ft | 18 kts | 250° |
| 2026-05-04 21:03 | 41.80509 | 12.26704 | 17 ft | 21 kts | 248° |
| 2026-05-04 21:03 | 41.80466 | 12.26550 | 19 ft | 16 kts | 250° |
| 2026-05-04 21:03 | 41.80430 | 12.26417 | 19 ft | 13 kts | 249° |
| 2026-05-04 21:03 | 41.80366 | 12.26370 | 18 ft | 11 kts | 176° |
| 2026-05-04 21:04 | 41.80292 | 12.26397 | 19 ft | 12 kts | 162° |
| 2026-05-04 21:04 | 41.80212 | 12.26405 | 19 ft | 12 kts | 200° |
| 2026-05-04 21:04 | 41.80131 | 12.26358 | 19 ft | 14 kts | 203° |
| 2026-05-04 21:04 | 41.80035 | 12.26303 | 20 ft | 16 kts | 203° |
| 2026-05-04 21:05 | 41.79936 | 12.26239 | 23 ft | 15 kts | 207° |
| 2026-05-04 21:05 | 41.79896 | 12.26213 | 23 ft | 0 kts | 204° |
| 2026-05-04 21:05 | 41.79890 | 12.26209 | 22 ft | 3 kts | 204° |
| 2026-05-04 21:06 | 41.79853 | 12.26187 | 23 ft | 9 kts | 204° |
| 2026-05-04 21:06 | 41.79782 | 12.26138 | 22 ft | 13 kts | 217° |
| 2026-05-04 21:06 | 41.79706 | 12.26065 | 19 ft | 10 kts | 204° |
| 2026-05-04 21:06 | 41.79676 | 12.26043 | 21 ft | 1 kts | 241° |
| 2026-05-04 21:07 | 41.79677 | 12.26040 | 20 ft | 1 kts | 278° |
| 2026-05-04 21:07 | 41.79685 | 12.26019 | 19 ft | 3 kts | 295° |
| 2026-05-04 21:07 | 41.79691 | 12.25999 | 20 ft | 1 kts | 292° |
| 2026-05-04 21:07 | 41.79691 | 12.25998 | 20 ft | 0 kts | 292° |